createdAt,value
2022-08-12T00:01:09.708Z,19.09
2022-08-12T00:06:12.955Z,19.01
2022-08-12T00:11:15.316Z,19.04
2022-08-12T00:16:17.072Z,19.05
2022-08-12T00:21:20.100Z,18.97
2022-08-12T00:26:24.562Z,18.84
2022-08-12T00:31:26.163Z,18.81
2022-08-12T00:36:34.715Z,18.81
2022-08-12T00:41:38.958Z,18.82
2022-08-12T00:46:54.371Z,18.60
2022-08-12T00:51:58.285Z,18.53
2022-08-12T00:57:04.034Z,18.52
2022-08-12T01:02:12.283Z,18.52
2022-08-12T01:07:15.818Z,18.49
2022-08-12T01:12:18.597Z,18.31
2022-08-12T01:17:22.222Z,18.47
2022-08-12T01:22:30.025Z,18.35
2022-08-12T01:27:34.059Z,18.30
2022-08-12T01:32:35.942Z,18.22
2022-08-12T01:37:48.571Z,18.06
2022-08-12T01:42:51.794Z,18.15
2022-08-12T01:48:14.758Z,18.09
2022-08-12T01:53:18.637Z,17.87
2022-08-12T01:58:35.355Z,17.88
2022-08-12T02:04:06.925Z,17.76
2022-08-12T02:09:14.039Z,17.69
2022-08-12T02:14:31.335Z,17.91
2022-08-12T02:19:47.894Z,17.84
2022-08-12T02:24:50.720Z,17.74
2022-08-12T02:29:52.373Z,17.56
2022-08-12T02:34:54.094Z,17.51
2022-08-12T02:39:58.897Z,17.47
2022-08-12T02:45:05.745Z,17.26
2022-08-12T02:50:09.783Z,17.34
2022-08-12T02:55:34.834Z,17.28
2022-08-12T03:00:38.666Z,17.38
2022-08-12T03:06:05.704Z,17.27
2022-08-12T03:11:21.194Z,17.33
2022-08-12T03:16:25.657Z,17.25
2022-08-12T03:21:55.507Z,17.03
2022-08-12T03:26:51.907Z,17.06
2022-08-12T03:31:59.322Z,16.80
2022-08-12T03:37:05.385Z,17.00
2022-08-12T03:42:25.396Z,17.07
2022-08-12T03:47:53.708Z,16.98
2022-08-12T03:52:55.167Z,16.83
2022-08-12T03:57:56.932Z,16.77
2022-08-12T04:02:58.756Z,16.91
2022-08-12T04:08:00.299Z,16.87
2022-08-12T04:13:01.777Z,16.64
2022-08-12T04:18:07.536Z,16.83
2022-08-12T04:23:11.431Z,16.65
2022-08-12T04:28:25.971Z,16.93
2022-08-12T04:33:28.308Z,16.80
2022-08-12T04:38:30.499Z,16.59
2022-08-12T04:43:54.453Z,16.54
2022-08-12T04:48:54.045Z,16.77
2022-08-12T04:53:56.311Z,17.01
2022-08-12T04:58:59.113Z,17.43
2022-08-12T05:04:00.992Z,17.76
2022-08-12T05:09:02.793Z,18.13
2022-08-12T05:14:15.101Z,18.24
2022-08-12T05:19:21.095Z,18.45
2022-08-12T05:24:24.130Z,19.04
2022-08-12T05:30:07.164Z,19.67
2022-08-12T05:34:50.612Z,20.47
2022-08-12T05:39:52.224Z,23.06
2022-08-12T05:44:53.931Z,27.24
2022-08-12T05:49:55.898Z,29.21
2022-08-12T05:54:58.043Z,30.30
2022-08-12T05:59:59.708Z,33.98
2022-08-12T06:05:01.167Z,34.88
2022-08-12T06:10:03.758Z,35.59
2022-08-12T06:15:05.927Z,33.63
2022-08-12T06:20:28.645Z,36.42
2022-08-12T06:25:30.079Z,38.41
2022-08-12T06:30:37.901Z,38.57
2022-08-12T06:35:47.645Z,36.90
2022-08-12T06:40:57.879Z,39.52
2022-08-12T06:45:59.863Z,39.66
2022-08-12T06:51:01.739Z,39.55
2022-08-12T06:56:03.887Z,39.09
2022-08-12T07:01:06.343Z,41.40
2022-08-12T07:06:08.296Z,37.19
2022-08-12T07:11:11.671Z,39.34
2022-08-12T07:16:18.404Z,42.04
2022-08-12T07:21:22.679Z,39.27
2022-08-12T07:26:24.148Z,43.98
2022-08-12T07:31:28.288Z,40.85
2022-08-12T07:36:29.737Z,42.76
2022-08-12T07:41:32.093Z,43.75
2022-08-12T07:46:40.495Z,41.97
2022-08-12T07:51:43.782Z,45.00
2022-08-12T07:56:45.235Z,47.23
2022-08-12T08:01:46.785Z,40.60
2022-08-12T08:06:49.563Z,46.88
2022-08-12T08:11:53.184Z,45.09
2022-08-12T08:16:57.201Z,44.59
2022-08-12T08:21:59.786Z,36.45
2022-08-12T08:27:01.381Z,37.55
2022-08-12T08:32:03.053Z,36.65
2022-08-12T08:37:07.708Z,33.92
2022-08-12T08:42:16.789Z,31.56
2022-08-12T08:47:21.003Z,31.45
2022-08-12T08:52:39.270Z,30.86
2022-08-12T08:57:45.052Z,30.32
2022-08-12T09:08:14.483Z,29.90
2022-08-12T09:18:42.222Z,30.84
2022-08-12T09:23:59.744Z,30.14
2022-08-12T09:29:03.243Z,31.18
2022-08-12T09:34:28.504Z,30.45
2022-08-12T09:40:05.244Z,31.00
2022-08-12T09:45:18.230Z,30.06
2022-08-12T09:50:20.448Z,31.09
2022-08-12T09:56:06.918Z,30.13
2022-08-12T10:00:52.044Z,30.08
2022-08-12T10:06:26.461Z,30.44
2022-08-12T10:11:18.368Z,30.17
2022-08-12T10:16:24.402Z,30.53
2022-08-12T10:21:37.519Z,30.61
2022-08-12T10:26:41.346Z,30.34
2022-08-12T10:32:15.697Z,30.22
2022-08-12T10:37:20.965Z,30.12
2022-08-12T10:42:39.712Z,30.07
2022-08-12T10:48:14.965Z,29.98
2022-08-12T10:53:09.607Z,30.20
2022-08-12T10:58:15.020Z,30.32
2022-08-12T11:04:23.174Z,30.31
2022-08-12T11:08:51.561Z,30.30
2022-08-12T11:13:54.970Z,30.18
2022-08-12T11:19:02.624Z,30.27
2022-08-12T11:24:04.849Z,30.35
2022-08-12T11:29:22.488Z,29.86
2022-08-12T11:34:53.757Z,29.76
2022-08-12T11:45:10.294Z,29.81
2022-08-12T11:50:19.469Z,30.17
2022-08-12T11:55:23.492Z,29.86
2022-08-12T12:05:47.361Z,29.20
2022-08-12T12:10:50.234Z,29.31
2022-08-12T12:15:53.143Z,29.04
2022-08-12T12:20:57.851Z,28.77
2022-08-12T12:26:07.975Z,28.95
2022-08-12T12:32:09.288Z,28.93
2022-08-12T12:36:31.659Z,28.99
2022-08-12T12:42:41.685Z,28.95
2022-08-12T12:46:56.627Z,29.12
2022-08-12T12:52:18.472Z,29.00
2022-08-12T12:57:24.223Z,29.00
2022-08-12T13:02:53.584Z,28.89
2022-08-12T13:08:00.648Z,28.97
2022-08-12T13:14:09.092Z,28.85
2022-08-12T13:18:28.516Z,29.03
2022-08-12T13:23:37.029Z,28.92
2022-08-12T13:28:42.847Z,28.81
2022-08-12T13:34:32.494Z,28.94
2022-08-12T13:39:06.019Z,29.02
2022-08-12T13:44:10.585Z,28.92
2022-08-12T13:49:17.528Z,28.99
2022-08-12T13:54:34.033Z,28.97
2022-08-12T13:59:48.690Z,28.93
2022-08-12T14:04:57.102Z,28.90
2022-08-12T14:09:58.799Z,28.90
2022-08-12T14:15:00.566Z,29.04
2022-08-12T14:20:02.245Z,28.88
2022-08-12T14:25:04.018Z,28.99
2022-08-12T14:30:15.470Z,28.86
2022-08-12T14:35:18.608Z,28.95
2022-08-12T14:40:27.952Z,29.00
2022-08-12T14:45:44.549Z,28.84
2022-08-12T14:52:10.740Z,28.91
2022-08-12T15:01:34.558Z,28.69
2022-08-12T15:06:39.217Z,28.72
2022-08-12T15:11:48.738Z,28.58
2022-08-12T15:16:56.789Z,28.82
2022-08-12T15:22:37.373Z,28.62
2022-08-12T15:28:03.121Z,28.51
2022-08-12T15:32:48.699Z,28.26
2022-08-12T15:38:19.671Z,28.26
2022-08-12T15:44:15.621Z,28.32
2022-08-12T15:48:47.114Z,28.25
2022-08-12T15:53:49.633Z,28.34
2022-08-12T15:58:56.555Z,28.30
2022-08-12T16:04:00.306Z,28.59
2022-08-12T16:09:02.536Z,28.50
2022-08-12T16:14:04.071Z,28.12
2022-08-12T16:19:18.765Z,28.12
2022-08-12T16:24:20.663Z,28.35
2022-08-12T16:29:23.811Z,28.45
2022-08-12T16:34:26.169Z,28.28
2022-08-12T16:39:59.540Z,28.15
2022-08-12T16:45:02.775Z,28.19
2022-08-12T16:50:06.293Z,28.16
2022-08-12T16:55:08.253Z,28.18
2022-08-12T17:00:16.442Z,27.95
2022-08-12T17:05:18.017Z,27.93
2022-08-12T17:10:35.504Z,27.94
2022-08-12T17:15:57.386Z,27.81
2022-08-12T17:21:01.478Z,27.60
2022-08-12T17:26:03.835Z,28.02
2022-08-12T17:31:06.603Z,27.43
2022-08-12T17:36:08.202Z,27.11
2022-08-12T17:41:22.483Z,27.49
2022-08-12T17:46:33.589Z,27.75
2022-08-12T17:51:50.396Z,27.50
2022-08-12T17:56:57.740Z,27.53
2022-08-12T18:02:00.438Z,27.40
2022-08-12T18:07:02.722Z,27.11
2022-08-12T18:12:08.765Z,27.04
2022-08-12T18:17:11.466Z,26.83
2022-08-12T18:22:13.316Z,26.51
2022-08-12T18:27:30.716Z,26.22
2022-08-12T18:32:58.205Z,26.03
2022-08-12T18:37:59.892Z,25.82
2022-08-12T18:43:01.750Z,25.66
2022-08-12T18:48:04.505Z,25.47
2022-08-12T18:53:08.749Z,25.22
2022-08-12T18:58:36.433Z,24.86
2022-08-12T19:03:39.592Z,24.66
2022-08-12T19:08:42.560Z,24.51
2022-08-12T19:13:49.646Z,24.41
2022-08-12T19:18:52.783Z,24.05
2022-08-12T19:23:54.320Z,23.98
2022-08-12T19:28:58.922Z,23.81
2022-08-12T19:34:25.493Z,23.78
2022-08-12T19:39:22.894Z,23.43
2022-08-12T19:44:27.397Z,23.29
2022-08-12T19:49:29.057Z,23.18
2022-08-12T19:54:30.848Z,23.05
2022-08-12T19:59:43.288Z,22.79
2022-08-12T20:06:03.480Z,22.69
2022-08-12T20:10:16.434Z,22.67
2022-08-12T20:15:18.119Z,22.30
2022-08-12T20:20:27.766Z,22.24
2022-08-12T20:25:52.168Z,22.24
2022-08-12T20:30:53.183Z,21.98
2022-08-12T20:36:06.489Z,21.96
2022-08-12T20:41:25.218Z,21.74
2022-08-12T20:46:29.302Z,21.73
2022-08-12T20:51:51.061Z,21.54
2022-08-12T20:56:53.490Z,21.44
2022-08-12T21:01:55.723Z,21.51
2022-08-12T21:06:57.568Z,21.38
2022-08-12T21:12:00.456Z,21.20
2022-08-12T21:17:04.679Z,20.96
2022-08-12T21:22:06.855Z,21.04
2022-08-12T21:27:58.162Z,20.92
2022-08-12T21:32:50.292Z,20.77
2022-08-12T21:37:53.136Z,20.66
2022-08-12T21:42:54.875Z,20.62
2022-08-12T21:47:56.987Z,20.56
2022-08-12T21:52:59.328Z,20.41
2022-08-12T21:58:16.734Z,20.36
2022-08-12T22:04:01.473Z,20.30
2022-08-12T22:08:39.953Z,20.21
2022-08-12T22:14:02.126Z,20.15
2022-08-12T22:19:09.577Z,19.76
2022-08-12T22:24:25.882Z,19.68
2022-08-12T22:29:29.316Z,19.79
2022-08-12T22:34:33.480Z,19.70
2022-08-12T22:39:35.234Z,19.41
2022-08-12T22:44:54.446Z,19.41
2022-08-12T22:49:59.803Z,19.48
2022-08-12T22:55:04.157Z,19.57
2022-08-12T23:00:12.765Z,19.28
2022-08-12T23:05:36.710Z,19.16
2022-08-12T23:10:48.283Z,19.19
2022-08-12T23:15:54.941Z,19.25
2022-08-12T23:20:57.149Z,19.00
2022-08-12T23:25:58.784Z,18.80
2022-08-12T23:31:04.386Z,18.69
2022-08-12T23:36:06.793Z,18.75
2022-08-12T23:41:12.621Z,18.68
2022-08-12T23:46:18.655Z,18.68
2022-08-12T23:51:24.322Z,18.76
2022-08-12T23:56:26.551Z,18.66
